Savoonga Airport
PASA : now visible

Airfield :











YOU CAN JOIN US ON...

 
LOGIN :

Register | Disclaimer

   EN    FR    IT 

 









Legend :    VFR   Marginal VFR   IFR   Intensive IFR   Very Intensive IFR
Visi :
Ceiling :
>= 8 km
>= 3000ft
5 to 8 km
1000 to 3000 ft
1500m to 5 km
500 to 1000 ft
800 to 1500m
200 to 500 ft
< 800m
< 200 ft
Symbols :   Thunderstorms  Fog  Heavy snow  Heavy precipitations  Wind > 20 kt






- Airport Elevation : 53 ft
- IATA code : SVA


PASA - Savoonga

CURRENT METAR :
  • 242156Z AUTO 19025KT 3/4SM -SN M08/M12 A3023 RMK AO2 PK WND 19030/2155 SLP239 P0000 T10831117 FZRANO $

EXPIRED METARs :
  • 242056Z AUTO 19025G29KT 1/2SM SN M09/M12 A3022 RMK AO2 PK WND 20031/2027 SLP233 P0000 60000 T10891117 51024 FZRANO $
  • 242018Z AUTO 19025G31KT 1/2SM SN M08/M11 A3020 RMK AO2 PK WND 20031/2009 P0000 FZRANO $
  • 241956Z AUTO 19025G31KT 1/4SM SN FZFG M09/M11 A3020 RMK AO2 PK WND 20035/1943 SLP227 P0000 T10891106 FZRANO $

TAF N/A



MET'MAP, your aeronautical weather chart ! - Copyright ORBIFLY December 2007 - Disclaimer

ORBIFLY MET'MAP TEAM :

Programming & Development : Alexandra Zaïnal
Concept & original design : Baudouin d'Aumeries
Assistance for programming : Marc-Olivier Méhu
Technical & hardware support : Manuel Goepfert

Contact : metmap@orbifly.com




SOURCES & CREDITS :

   NOAA       Earth
Advisory